createdAt,value
2019-04-01T00:01:07.694Z,99.90
2019-04-01T00:03:35.092Z,99.90
2019-04-01T00:06:02.315Z,99.90
2019-04-01T00:08:29.540Z,99.90
2019-04-01T00:10:56.791Z,99.90
2019-04-01T00:13:24.079Z,99.90
2019-04-01T00:15:51.327Z,99.90
2019-04-01T00:18:18.544Z,99.90
2019-04-01T00:20:45.777Z,99.90
2019-04-01T00:23:13.001Z,99.90
2019-04-01T00:25:40.316Z,99.90
2019-04-01T00:28:07.589Z,99.90
2019-04-01T00:30:34.859Z,99.90
2019-04-01T00:33:02.091Z,99.90
2019-04-01T00:35:29.451Z,99.90
2019-04-01T00:37:56.697Z,99.90
2019-04-01T00:40:23.924Z,99.90
2019-04-01T00:43:02.147Z,99.90
2019-04-01T00:45:29.666Z,99.90
2019-04-01T00:47:56.887Z,99.90
2019-04-01T00:50:24.127Z,99.90
2019-04-01T00:52:51.457Z,99.90
2019-04-01T00:55:18.731Z,99.90
2019-04-01T00:57:46.008Z,99.90
2019-04-01T01:00:14.048Z,99.90
2019-04-01T01:02:41.439Z,99.90
2019-04-01T01:05:08.782Z,99.90
2019-04-01T01:07:36.111Z,99.90
2019-04-01T01:10:05.360Z,99.90
2019-04-01T01:12:32.636Z,99.90
2019-04-01T01:15:00.381Z,99.90
2019-04-01T01:17:28.064Z,99.90
2019-04-01T01:19:55.785Z,99.90
2019-04-01T01:22:23.463Z,99.90
2019-04-01T01:24:51.139Z,99.90
2019-04-01T01:27:18.854Z,99.90
2019-04-01T01:29:46.158Z,99.90
2019-04-01T01:32:13.462Z,99.90
2019-04-01T01:34:40.715Z,99.90
2019-04-01T01:37:08.268Z,99.90
2019-04-01T01:39:35.505Z,99.90
2019-04-01T01:42:02.836Z,99.90
2019-04-01T01:44:30.120Z,99.90
2019-04-01T01:46:57.347Z,99.90
2019-04-01T01:49:24.610Z,99.90
2019-04-01T01:51:51.943Z,99.90
2019-04-01T01:54:19.206Z,99.90
2019-04-01T01:56:46.439Z,99.90
2019-04-01T01:59:13.667Z,99.90
2019-04-01T02:01:40.909Z,99.90
2019-04-01T02:04:08.156Z,99.90
2019-04-01T02:06:35.446Z,99.90
2019-04-01T02:09:04.186Z,99.90
2019-04-01T02:11:31.405Z,99.90
2019-04-01T02:13:58.690Z,99.90
2019-04-01T02:16:26.027Z,99.90
2019-04-01T02:18:53.263Z,99.90
2019-04-01T02:21:20.570Z,99.90
2019-04-01T02:23:47.825Z,99.90
2019-04-01T02:26:15.082Z,99.90
2019-04-01T02:28:42.291Z,99.90
2019-04-01T02:31:09.524Z,99.90
2019-04-01T02:33:36.779Z,99.90
2019-04-01T02:36:04.086Z,99.90
2019-04-01T02:38:31.364Z,99.90
2019-04-01T02:40:58.691Z,99.90
2019-04-01T02:43:25.916Z,99.90
2019-04-01T02:45:53.154Z,99.90
2019-04-01T02:48:20.527Z,99.90
2019-04-01T02:50:47.851Z,99.90
2019-04-01T02:53:15.135Z,99.90
2019-04-01T02:55:42.379Z,99.90
2019-04-01T02:58:09.752Z,99.90
2019-04-01T03:00:36.981Z,99.90
2019-04-01T03:03:04.209Z,99.90
2019-04-01T03:05:31.467Z,99.90
2019-04-01T03:07:58.668Z,99.90
2019-04-01T03:10:25.924Z,99.90
2019-04-01T03:12:53.242Z,99.90
2019-04-01T03:15:20.571Z,99.90
2019-04-01T03:17:47.921Z,99.90
2019-04-01T03:20:15.304Z,99.90
2019-04-01T03:22:42.599Z,99.90
2019-04-01T03:25:09.848Z,99.90
2019-04-01T03:27:37.120Z,99.90
2019-04-01T03:30:04.463Z,99.90
2019-04-01T03:32:31.787Z,99.90
2019-04-01T03:34:59.152Z,99.90
2019-04-01T03:37:26.411Z,99.90
2019-04-01T03:39:53.637Z,99.90
2019-04-01T03:42:20.888Z,99.90
2019-04-01T03:44:48.136Z,99.90
2019-04-01T03:47:15.367Z,99.90
2019-04-01T03:49:42.726Z,99.90
2019-04-01T03:52:10.464Z,99.90
2019-04-01T03:54:38.135Z,99.90
2019-04-01T03:57:05.471Z,99.90
2019-04-01T03:59:32.811Z,99.90
2019-04-01T04:02:00.161Z,99.90
2019-04-01T04:04:27.548Z,99.90
2019-04-01T04:06:54.875Z,99.90
2019-04-01T04:09:22.187Z,99.90
2019-04-01T04:11:49.455Z,99.90
2019-04-01T04:14:16.669Z,99.90
2019-04-01T04:16:43.881Z,99.90
2019-04-01T04:19:11.116Z,99.90
2019-04-01T04:21:38.359Z,99.90
2019-04-01T04:24:05.672Z,99.90
2019-04-01T04:26:33.204Z,99.90
2019-04-01T04:29:00.412Z,99.90
2019-04-01T04:31:27.699Z,99.90
2019-04-01T04:33:54.969Z,99.90
2019-04-01T04:36:22.213Z,99.90
2019-04-01T04:38:49.459Z,99.90
2019-04-01T04:41:16.724Z,99.90
2019-04-01T04:43:44.011Z,99.90
2019-04-01T04:46:11.308Z,99.90
2019-04-01T04:48:38.627Z,99.90
2019-04-01T04:51:05.867Z,99.90
2019-04-01T04:53:33.104Z,99.90
2019-04-01T04:56:00.331Z,99.90
2019-04-01T04:58:30.716Z,99.90
2019-04-01T05:00:57.944Z,99.90
2019-04-01T05:03:25.189Z,99.90
2019-04-01T05:05:52.427Z,99.90
2019-04-01T05:08:19.645Z,99.90
2019-04-01T05:10:46.908Z,99.90
2019-04-01T05:13:14.150Z,99.90
2019-04-01T05:15:41.391Z,99.90
2019-04-01T05:18:08.632Z,99.90
2019-04-01T05:20:37.915Z,99.90
2019-04-01T05:23:06.062Z,99.90
2019-04-01T05:25:34.759Z,99.90
2019-04-01T05:28:02.787Z,99.90
2019-04-01T05:30:32.905Z,99.90
2019-04-01T05:33:02.115Z,99.90
2019-04-01T05:35:32.719Z,99.90
2019-04-01T05:37:59.936Z,99.90
2019-04-01T05:40:27.191Z,99.90
2019-04-01T05:42:54.435Z,99.90
2019-04-01T05:45:21.667Z,99.90
2019-04-01T05:47:51.138Z,99.90
2019-04-01T05:50:18.394Z,99.90
2019-04-01T05:52:45.611Z,99.90
2019-04-01T05:55:12.844Z,99.90
2019-04-01T05:57:40.086Z,99.90
2019-04-01T06:00:08.359Z,99.90
2019-04-01T06:02:35.587Z,99.90
2019-04-01T06:05:03.684Z,99.90
2019-04-01T06:07:30.939Z,99.90
2019-04-01T06:09:58.319Z,99.90
2019-04-01T06:12:25.593Z,99.90
2019-04-01T06:14:52.899Z,99.90
2019-04-01T06:17:20.139Z,99.90
2019-04-01T06:19:47.404Z,99.90
2019-04-01T06:22:14.978Z,99.90
2019-04-01T06:24:42.224Z,99.90
2019-04-01T06:27:09.499Z,99.90
2019-04-01T06:29:36.757Z,99.90
2019-04-01T06:32:03.993Z,99.90
2019-04-01T06:34:31.198Z,99.90
2019-04-01T06:36:58.414Z,99.90
2019-04-01T06:39:25.659Z,99.90
2019-04-01T06:41:53.078Z,99.90
2019-04-01T06:44:20.355Z,99.90
2019-04-01T06:46:48.252Z,99.90
2019-04-01T06:49:15.590Z,99.90
2019-04-01T06:51:44.276Z,99.90
2019-04-01T06:54:11.495Z,99.90
2019-04-01T06:56:39.249Z,99.90
2019-04-01T06:59:06.526Z,99.90
2019-04-01T07:01:33.779Z,99.90
2019-04-01T07:04:01.016Z,99.90
2019-04-01T07:06:28.635Z,99.90
2019-04-01T07:08:55.959Z,99.90
2019-04-01T07:11:24.383Z,99.90
2019-04-01T07:13:51.953Z,99.90
2019-04-01T07:16:19.184Z,99.90
2019-04-01T07:18:46.555Z,99.90
2019-04-01T07:21:14.049Z,99.90
2019-04-01T07:23:41.379Z,99.90
2019-04-01T07:26:08.670Z,99.90
2019-04-01T07:28:36.003Z,99.90
2019-04-01T07:31:03.325Z,99.90
2019-04-01T07:33:30.785Z,99.90
2019-04-01T07:35:58.507Z,99.90
2019-04-01T07:38:25.959Z,99.90
2019-04-01T07:40:53.570Z,99.90
2019-04-01T07:43:20.997Z,99.90
2019-04-01T07:45:49.471Z,99.90
2019-04-01T07:48:17.891Z,99.90
2019-04-01T07:50:45.462Z,99.90
2019-04-01T07:53:12.854Z,99.90
2019-04-01T07:55:40.157Z,99.90
2019-04-01T07:58:08.110Z,99.90
2019-04-01T08:00:35.520Z,99.90
2019-04-01T08:03:03.302Z,99.90
2019-04-01T08:05:30.677Z,99.90
2019-04-01T08:07:58.160Z,99.90
2019-04-01T08:10:25.584Z,99.90
2019-04-01T08:12:52.971Z,99.90
2019-04-01T08:15:21.432Z,99.90
2019-04-01T08:17:49.150Z,99.90
2019-04-01T08:20:16.611Z,99.90
2019-04-01T08:22:43.915Z,99.90
2019-04-01T08:25:11.156Z,99.90
2019-04-01T08:27:38.432Z,99.90
2019-04-01T08:30:07.261Z,99.90
2019-04-01T08:32:34.894Z,99.90
2019-04-01T08:35:02.515Z,99.90
2019-04-01T08:37:30.513Z,99.90
2019-04-01T08:39:57.847Z,99.90
2019-04-01T08:42:25.225Z,99.90
2019-04-01T08:44:52.715Z,99.90
2019-04-01T08:47:20.216Z,99.90
2019-04-01T08:49:47.625Z,99.90
2019-04-01T08:52:14.946Z,99.90
2019-04-01T08:54:42.255Z,99.90
2019-04-01T08:57:09.701Z,99.90
2019-04-01T08:59:37.197Z,99.90
2019-04-01T09:02:17.049Z,99.90
2019-04-01T09:04:33.992Z,99.90
2019-04-01T09:07:01.403Z,99.90
2019-04-01T09:09:30.326Z,99.90
2019-04-01T09:11:58.786Z,99.90
2019-04-01T09:14:27.755Z,99.90
2019-04-01T09:16:56.423Z,99.90
2019-04-01T09:19:23.798Z,99.90
2019-04-01T09:21:51.685Z,99.90
2019-04-01T09:24:19.164Z,99.90
2019-04-01T09:26:46.561Z,99.90
2019-04-01T09:29:13.854Z,99.90
2019-04-01T09:31:41.278Z,99.90
2019-04-01T09:34:08.820Z,99.90
2019-04-01T09:36:36.183Z,99.90
2019-04-01T09:39:06.264Z,99.90
2019-04-01T09:41:33.999Z,99.90
2019-04-01T09:44:02.499Z,99.90
2019-04-01T09:46:30.391Z,99.90
2019-04-01T09:48:57.851Z,99.90
2019-04-01T09:51:25.694Z,99.90
2019-04-01T09:53:53.100Z,99.90
2019-04-01T09:56:20.522Z,99.90
2019-04-01T09:58:47.980Z,99.90
2019-04-01T10:01:15.890Z,99.90
2019-04-01T10:03:43.247Z,99.80
2019-04-01T10:06:11.017Z,99.30
2019-04-01T10:08:42.460Z,98.60
2019-04-01T10:11:12.423Z,98.60
2019-04-01T10:13:38.253Z,98.10
2019-04-01T10:16:05.744Z,98.30
2019-04-01T10:18:33.060Z,98.40
2019-04-01T10:21:00.877Z,97.20
2019-04-01T10:23:28.316Z,97.10
2019-04-01T10:25:56.898Z,96.60
2019-04-01T10:28:24.323Z,95.60
2019-04-01T10:30:51.628Z,95.50
2019-04-01T10:33:19.390Z,95.50
2019-04-01T10:35:46.726Z,95.30
2019-04-01T10:38:14.033Z,95.20
2019-04-01T10:40:41.373Z,94.50
2019-04-01T10:43:08.746Z,94.80
2019-04-01T10:45:36.019Z,94.40
2019-04-01T10:48:03.435Z,93.70
2019-04-01T10:50:30.832Z,93.60
2019-04-01T10:52:58.229Z,92.60
2019-04-01T10:55:25.636Z,92.50
2019-04-01T10:57:54.027Z,92.40
2019-04-01T11:00:21.948Z,92.30
2019-04-01T11:02:50.174Z,90.90
2019-04-01T11:05:18.111Z,90.90
2019-04-01T11:07:46.082Z,90.80
2019-04-01T11:10:13.481Z,90.70
2019-04-01T11:12:40.894Z,90.10
2019-04-01T11:15:08.906Z,90.10
2019-04-01T11:17:36.362Z,88.90
2019-04-01T11:20:04.356Z,88.40
2019-04-01T11:22:31.969Z,88.60
2019-04-01T11:24:59.582Z,88.70
2019-04-01T11:27:27.108Z,87.30
2019-04-01T11:29:54.459Z,86.00
2019-04-01T11:32:21.881Z,84.70
2019-04-01T11:34:55.948Z,85.00
2019-04-01T11:37:21.866Z,83.50
2019-04-01T11:39:49.246Z,83.00
2019-04-01T11:42:16.647Z,80.90
2019-04-01T11:44:44.040Z,78.40
2019-04-01T11:47:11.435Z,78.00
2019-04-01T11:49:38.939Z,76.20
2019-04-01T11:52:06.516Z,75.80
2019-04-01T11:54:33.966Z,74.60
2019-04-01T11:57:01.403Z,74.00
2019-04-01T11:59:28.826Z,71.00
2019-04-01T12:01:56.216Z,70.70
2019-04-01T12:04:23.580Z,70.40
2019-04-01T12:06:51.288Z,70.30
2019-04-01T12:09:18.706Z,70.00
2019-04-01T12:11:46.074Z,69.60
2019-04-01T12:14:13.506Z,69.40
2019-04-01T12:16:40.903Z,69.30
2019-04-01T12:19:08.244Z,69.20
2019-04-01T12:21:35.605Z,68.90
2019-04-01T12:24:02.972Z,68.80
2019-04-01T12:26:30.300Z,68.80
2019-04-01T12:28:57.890Z,68.70
2019-04-01T12:31:25.440Z,68.00
2019-04-01T12:33:52.798Z,68.00
2019-04-01T12:36:20.288Z,68.10
2019-04-01T12:38:47.715Z,67.90
2019-04-01T12:41:15.123Z,67.70
2019-04-01T12:43:42.495Z,67.10
2019-04-01T12:46:10.065Z,66.80
2019-04-01T12:48:37.854Z,66.30
2019-04-01T12:51:05.705Z,65.90
2019-04-01T12:53:33.040Z,65.60
2019-04-01T12:56:00.449Z,64.80
2019-04-01T12:58:27.882Z,64.20
2019-04-01T13:00:55.193Z,63.80
2019-04-01T13:03:22.707Z,63.30
2019-04-01T13:05:50.274Z,63.20
2019-04-01T13:08:17.764Z,62.80
2019-04-01T13:10:45.307Z,62.60
2019-04-01T13:13:13.156Z,62.40
2019-04-01T13:15:40.753Z,62.20
2019-04-01T13:18:08.147Z,62.20
2019-04-01T13:20:38.020Z,61.90
2019-04-01T13:23:05.150Z,61.90
2019-04-01T13:25:33.810Z,61.80
2019-04-01T13:28:01.467Z,61.90
2019-04-01T13:30:29.567Z,62.00
2019-04-01T13:32:57.003Z,62.00
2019-04-01T13:35:24.494Z,62.00
2019-04-01T13:37:51.904Z,62.00
2019-04-01T13:40:19.664Z,62.20
2019-04-01T13:42:47.233Z,62.40
2019-04-01T13:45:14.569Z,62.70
2019-04-01T13:47:42.011Z,63.60
2019-04-01T13:50:10.515Z,63.70
2019-04-01T13:52:38.008Z,63.70
2019-04-01T13:55:05.509Z,63.60
2019-04-01T13:57:32.843Z,63.80
2019-04-01T14:00:00.234Z,64.00
2019-04-01T14:02:30.896Z,64.20
2019-04-01T14:04:57.046Z,63.40
2019-04-01T14:07:25.003Z,63.70
2019-04-01T14:09:56.794Z,64.20
2019-04-01T14:12:24.204Z,64.50
2019-04-01T14:14:51.596Z,66.70
2019-04-01T14:17:19.099Z,65.80
2019-04-01T14:19:46.558Z,66.00
2019-04-01T14:22:14.043Z,65.00
2019-04-01T14:24:42.714Z,65.70
2019-04-01T14:27:10.429Z,66.40
2019-04-01T14:29:37.864Z,69.30
2019-04-01T14:32:05.199Z,70.80
2019-04-01T14:34:32.487Z,75.50
2019-04-01T14:36:59.767Z,77.40
2019-04-01T14:39:27.348Z,81.50
2019-04-01T14:41:54.671Z,82.00
2019-04-01T14:44:21.992Z,83.00
2019-04-01T14:46:49.248Z,86.10
2019-04-01T14:49:16.533Z,86.50
2019-04-01T14:51:43.844Z,86.70
2019-04-01T14:54:11.106Z,87.80
2019-04-01T14:56:38.385Z,88.70
2019-04-01T14:59:05.680Z,89.50
2019-04-01T15:01:32.939Z,89.60
2019-04-01T15:04:00.228Z,90.00
2019-04-01T15:06:27.531Z,90.30
2019-04-01T15:08:54.899Z,90.40
2019-04-01T15:11:23.388Z,90.30
2019-04-01T15:13:50.665Z,90.30
2019-04-01T15:16:18.122Z,90.80
2019-04-01T15:18:48.394Z,91.10
2019-04-01T15:21:15.872Z,90.40
2019-04-01T15:23:43.191Z,90.40
2019-04-01T15:26:10.511Z,90.40
2019-04-01T15:28:37.851Z,90.80
2019-04-01T15:31:05.148Z,91.00
2019-04-01T15:33:32.435Z,91.50
2019-04-01T15:35:59.841Z,91.50
2019-04-01T15:38:27.183Z,91.60
2019-04-01T15:40:58.291Z,91.60
2019-04-01T15:43:25.563Z,91.70
2019-04-01T15:45:52.927Z,91.80
2019-04-01T15:48:20.148Z,92.00
2019-04-01T15:50:47.429Z,92.10
2019-04-01T15:53:14.654Z,92.10
2019-04-01T15:55:41.989Z,92.20
2019-04-01T15:58:09.301Z,92.10
2019-04-01T16:00:39.644Z,92.20
2019-04-01T16:03:06.879Z,92.40
2019-04-01T16:05:34.343Z,92.30
2019-04-01T16:08:01.984Z,92.40
2019-04-01T16:10:29.612Z,92.30
2019-04-01T16:12:57.089Z,92.10
2019-04-01T16:15:24.316Z,92.10
2019-04-01T16:17:53.847Z,92.20
2019-04-01T16:20:21.282Z,92.30
2019-04-01T16:22:58.752Z,92.30
2019-04-01T16:28:59.355Z,92.50
2019-04-01T16:31:26.638Z,92.80
2019-04-01T16:33:53.991Z,92.80
2019-04-01T16:36:21.265Z,92.80
2019-04-01T16:38:48.493Z,92.80
2019-04-01T16:41:16.653Z,92.90
2019-04-01T16:43:46.212Z,93.00
2019-04-01T16:46:13.616Z,93.40
2019-04-01T16:48:40.955Z,93.40
2019-04-01T16:51:08.202Z,93.60
2019-04-01T16:53:35.567Z,93.30
2019-04-01T16:56:03.036Z,93.70
2019-04-01T16:58:31.072Z,93.70
2019-04-01T17:01:02.384Z,93.70
2019-04-01T17:03:28.391Z,93.80
2019-04-01T17:05:55.608Z,93.90
2019-04-01T17:08:22.872Z,93.80
2019-04-01T17:10:50.198Z,93.80
2019-04-01T17:13:17.551Z,93.90
2019-04-01T17:15:45.007Z,93.90
2019-04-01T17:18:12.377Z,93.90
2019-04-01T17:20:39.723Z,94.10
2019-04-01T17:23:06.965Z,94.10
2019-04-01T17:25:34.306Z,94.20
2019-04-01T17:28:01.540Z,94.30
2019-04-01T17:30:28.763Z,94.30
2019-04-01T17:32:56.043Z,94.40
2019-04-01T17:35:23.327Z,94.50
2019-04-01T17:37:50.704Z,94.60
2019-04-01T17:40:17.953Z,94.60
2019-04-01T17:42:46.522Z,94.80
2019-04-01T17:45:35.567Z,94.80
2019-04-01T17:48:04.385Z,94.90
2019-04-01T17:50:32.083Z,94.90
2019-04-01T17:52:59.530Z,95.00
2019-04-01T17:55:29.181Z,95.30
2019-04-01T17:57:56.527Z,95.40
2019-04-01T18:00:25.649Z,95.60
2019-04-01T18:03:26.457Z,95.60
2019-04-01T18:06:13.220Z,95.50
2019-04-01T18:08:40.613Z,95.70
2019-04-01T18:11:10.912Z,96.10
2019-04-01T18:13:38.218Z,95.90
2019-04-01T18:16:05.511Z,96.40
2019-04-01T18:18:35.289Z,96.40
2019-04-01T18:21:03.391Z,96.50
2019-04-01T18:23:31.123Z,96.60
2019-04-01T18:25:58.510Z,96.60
2019-04-01T18:28:25.866Z,96.80
2019-04-01T18:30:54.238Z,96.80
2019-04-01T18:33:21.697Z,96.90
2019-04-01T18:35:48.957Z,97.30
2019-04-01T18:38:17.234Z,97.20
2019-04-01T18:40:44.704Z,97.30
2019-04-01T18:43:11.995Z,97.20
2019-04-01T18:45:39.247Z,97.30
2019-04-01T18:48:06.503Z,97.60
2019-04-01T18:50:33.819Z,97.60
2019-04-01T18:53:01.121Z,97.70
2019-04-01T18:55:28.471Z,97.70
2019-04-01T18:57:56.481Z,97.80
2019-04-01T19:00:24.075Z,97.80
2019-04-01T19:02:55.346Z,97.90
2019-04-01T19:05:23.060Z,98.20
2019-04-01T19:07:50.462Z,98.20
2019-04-01T19:10:17.993Z,98.20
2019-04-01T19:12:47.687Z,98.30
2019-04-01T19:15:16.084Z,98.30
2019-04-01T19:17:43.519Z,98.60
2019-04-01T19:20:11.443Z,98.80
2019-04-01T19:22:40.936Z,98.50
2019-04-01T19:25:08.436Z,98.60
2019-04-01T19:27:35.687Z,98.90
2019-04-01T19:30:03.778Z,98.90
2019-04-01T19:32:31.112Z,99.20
2019-04-01T19:34:58.555Z,99.20
2019-04-01T19:40:13.349Z,99.40
2019-04-01T19:42:40.666Z,99.60
2019-04-01T19:45:09.340Z,99.50
2019-04-01T19:47:36.555Z,99.50
2019-04-01T19:50:06.981Z,99.60
2019-04-01T19:52:34.543Z,99.50
2019-04-01T19:55:03.387Z,99.90
2019-04-01T19:57:31.252Z,99.70
2019-04-01T19:59:58.628Z,99.90
2019-04-01T20:02:26.431Z,99.90
2019-04-01T20:05:04.996Z,99.90
2019-04-01T20:07:32.392Z,99.90
2019-04-01T20:09:59.799Z,99.90
2019-04-01T20:12:29.504Z,99.90
2019-04-01T20:14:58.928Z,99.90
2019-04-01T20:17:26.777Z,99.90
2019-04-01T20:19:54.318Z,99.90
2019-04-01T20:22:22.787Z,99.90
2019-04-01T20:24:50.436Z,99.90
2019-04-01T20:27:20.670Z,99.90
2019-04-01T20:29:48.176Z,99.90
2019-04-01T20:32:17.516Z,99.90
2019-04-01T20:34:56.428Z,99.90
2019-04-01T20:37:14.035Z,99.90
2019-04-01T20:39:41.453Z,99.90
2019-04-01T20:42:12.736Z,99.90
2019-04-01T20:44:40.341Z,99.90
2019-04-01T20:47:08.598Z,99.90
2019-04-01T20:49:36.886Z,99.90
2019-04-01T20:52:04.412Z,99.90
2019-04-01T20:54:31.834Z,99.90
2019-04-01T20:56:59.244Z,99.90
2019-04-01T20:59:26.843Z,99.90
2019-04-01T21:01:54.094Z,99.90
2019-04-01T21:04:21.421Z,99.90
2019-04-01T21:06:50.034Z,99.90
2019-04-01T21:09:17.580Z,99.90
2019-04-01T21:11:44.959Z,99.90
2019-04-01T21:14:12.720Z,99.90
2019-04-01T21:16:40.026Z,99.90
2019-04-01T21:19:07.263Z,99.90
2019-04-01T21:21:34.752Z,99.90
2019-04-01T21:24:02.097Z,99.90
2019-04-01T21:26:29.700Z,99.90
2019-04-01T21:28:57.489Z,99.90
2019-04-01T21:31:24.912Z,99.90
2019-04-01T21:33:52.157Z,99.90
2019-04-01T21:36:19.434Z,99.90
2019-04-01T21:38:46.772Z,99.90
2019-04-01T21:41:14.023Z,99.90
2019-04-01T21:43:41.293Z,99.90
2019-04-01T21:46:08.589Z,99.90
2019-04-01T21:48:35.835Z,99.90
2019-04-01T21:51:03.992Z,99.90
2019-04-01T21:53:31.648Z,99.90
2019-04-01T21:55:59.056Z,99.90
2019-04-01T21:58:26.299Z,99.90
2019-04-01T22:00:54.735Z,99.90
2019-04-01T22:03:22.123Z,99.90
2019-04-01T22:05:49.451Z,99.90
2019-04-01T22:08:16.784Z,99.90
2019-04-01T22:10:44.055Z,99.90
2019-04-01T22:13:11.292Z,99.90
2019-04-01T22:15:38.560Z,99.90
2019-04-01T22:18:05.797Z,99.90
2019-04-01T22:20:33.087Z,99.90
2019-04-01T22:23:00.334Z,99.90
2019-04-01T22:25:27.559Z,99.90
2019-04-01T22:27:54.832Z,99.90
2019-04-01T22:30:22.156Z,99.90
2019-04-01T22:32:49.397Z,99.90
2019-04-01T22:35:16.667Z,99.90
2019-04-01T22:37:43.906Z,99.90
2019-04-01T22:40:11.331Z,99.90
2019-04-01T22:42:38.590Z,99.90
2019-04-01T22:45:05.959Z,99.90
2019-04-01T22:47:33.224Z,99.90
2019-04-01T22:50:00.463Z,99.90
2019-04-01T22:52:27.932Z,99.90
2019-04-01T22:54:55.245Z,99.90
2019-04-01T22:57:23.248Z,99.90
2019-04-01T22:59:51.540Z,99.90
2019-04-01T23:02:18.867Z,99.90
2019-04-01T23:04:46.128Z,99.90
2019-04-01T23:07:13.365Z,99.90
2019-04-01T23:09:40.587Z,99.90
2019-04-01T23:12:07.877Z,99.90
2019-04-01T23:14:35.891Z,99.90
2019-04-01T23:17:03.147Z,99.90
2019-04-01T23:19:30.367Z,99.90
2019-04-01T23:21:57.602Z,99.90
2019-04-01T23:24:24.943Z,99.90
2019-04-01T23:26:52.186Z,99.90
2019-04-01T23:29:19.404Z,99.90
2019-04-01T23:31:47.206Z,99.90
2019-04-01T23:34:14.917Z,99.90
2019-04-01T23:36:42.161Z,99.90
2019-04-01T23:39:09.401Z,99.90
2019-04-01T23:41:36.634Z,99.90
2019-04-01T23:44:03.891Z,99.90
2019-04-01T23:46:31.154Z,99.90
2019-04-01T23:48:58.899Z,99.90
2019-04-01T23:51:26.207Z,99.90
2019-04-01T23:53:53.441Z,99.90
2019-04-01T23:56:20.695Z,99.90
2019-04-01T23:58:47.983Z,99.90
